createdAt,value
2018-06-05T00:01:35.534Z,20.60
2018-06-05T00:04:03.696Z,20.50
2018-06-05T00:06:32.054Z,20.50
2018-06-05T00:09:00.203Z,20.50
2018-06-05T00:11:28.279Z,20.40
2018-06-05T00:13:56.318Z,20.40
2018-06-05T00:18:51.507Z,20.40
2018-06-05T00:21:19.543Z,20.40
2018-06-05T00:23:58.020Z,20.30
2018-06-05T00:26:27.398Z,20.30
2018-06-05T00:28:57.323Z,20.30
2018-06-05T00:31:25.082Z,20.30
2018-06-05T00:33:52.770Z,20.30
2018-06-05T00:36:20.500Z,20.20
2018-06-05T00:38:48.131Z,20.20
2018-06-05T00:41:15.695Z,20.10
2018-06-05T00:43:43.462Z,20.10
2018-06-05T00:46:11.231Z,20.10
2018-06-05T00:48:39.046Z,20.00
2018-06-05T00:51:18.207Z,19.90
2018-06-05T00:53:46.388Z,19.90
2018-06-05T00:56:14.058Z,19.80
2018-06-05T00:58:41.761Z,19.80
2018-06-05T01:01:09.559Z,19.80
2018-06-05T01:03:37.649Z,19.80
2018-06-05T01:06:06.243Z,19.80
2018-06-05T01:08:34.882Z,19.70
2018-06-05T01:13:31.734Z,19.70
2018-06-05T01:15:59.769Z,19.70
2018-06-05T01:18:29.168Z,19.70
2018-06-05T01:20:59.351Z,19.60
2018-06-05T01:23:27.460Z,19.70
2018-06-05T01:28:24.657Z,19.50
2018-06-05T01:30:52.754Z,19.40
2018-06-05T01:33:21.934Z,19.40
2018-06-05T01:35:50.681Z,19.50
2018-06-05T01:38:18.398Z,19.40
2018-06-05T01:40:45.957Z,19.40
2018-06-05T01:43:13.863Z,19.30
2018-06-05T01:45:42.081Z,19.30
2018-06-05T01:48:10.017Z,19.30
2018-06-05T01:50:37.679Z,19.30
2018-06-05T01:53:05.480Z,19.20
2018-06-05T01:55:35.643Z,19.20
2018-06-05T01:58:05.498Z,19.20
2018-06-05T02:00:33.615Z,19.20
2018-06-05T02:03:02.095Z,19.20
2018-06-05T02:05:30.098Z,19.20
2018-06-05T02:07:58.276Z,19.20
2018-06-05T02:10:26.924Z,19.10
2018-06-05T02:12:55.962Z,19.10
2018-06-05T02:15:23.742Z,19.00
2018-06-05T02:17:53.099Z,19.00
2018-06-05T02:20:25.192Z,19.00
2018-06-05T02:22:58.126Z,19.00
2018-06-05T02:25:26.223Z,19.00
2018-06-05T02:27:54.241Z,18.90
2018-06-05T02:30:21.847Z,18.90
2018-06-05T02:32:49.765Z,18.80
2018-06-05T02:35:17.474Z,18.80
2018-06-05T02:37:46.280Z,18.70
2018-06-05T02:40:14.068Z,18.80
2018-06-05T02:42:41.689Z,18.60
2018-06-05T02:45:09.597Z,18.70
2018-06-05T02:47:37.243Z,18.60
2018-06-05T02:50:05.172Z,18.70
2018-06-05T02:52:33.318Z,18.70
2018-06-05T02:55:02.580Z,18.70
2018-06-05T02:57:30.589Z,18.60
2018-06-05T02:59:58.803Z,18.60
2018-06-05T03:02:28.118Z,18.60
2018-06-05T03:04:56.230Z,18.60
2018-06-05T03:07:24.340Z,18.60
2018-06-05T03:09:52.042Z,18.40
2018-06-05T03:12:19.657Z,18.50
2018-06-05T03:14:47.676Z,18.50
2018-06-05T03:17:17.505Z,18.50
2018-06-05T03:19:45.857Z,18.40
2018-06-05T03:22:15.881Z,18.30
2018-06-05T03:24:43.667Z,18.30
2018-06-05T03:27:11.527Z,18.40
2018-06-05T03:29:39.334Z,18.30
2018-06-05T03:32:07.402Z,18.30
2018-06-05T03:34:36.702Z,18.40
2018-06-05T03:37:04.656Z,18.30
2018-06-05T03:39:32.701Z,18.30
2018-06-05T03:42:01.064Z,18.40
2018-06-05T03:47:15.515Z,18.30
2018-06-05T03:49:47.027Z,18.30
2018-06-05T03:52:14.838Z,18.30
2018-06-05T03:54:48.742Z,18.30
2018-06-05T03:57:16.506Z,18.20
2018-06-05T03:59:44.907Z,18.20
2018-06-05T04:02:12.846Z,18.20
2018-06-05T04:04:40.512Z,18.30
2018-06-05T04:07:08.610Z,18.30
2018-06-05T04:09:36.763Z,18.30
2018-06-05T04:12:05.139Z,18.30
2018-06-05T04:14:33.710Z,18.30
2018-06-05T04:17:01.744Z,18.30
2018-06-05T04:19:35.494Z,18.20
2018-06-05T04:22:04.488Z,18.30
2018-06-05T04:24:35.435Z,18.40
2018-06-05T04:27:04.116Z,18.30
2018-06-05T04:29:32.608Z,18.40
2018-06-05T04:32:03.728Z,18.40
2018-06-05T04:37:02.138Z,18.40
2018-06-05T04:39:31.315Z,18.40
2018-06-05T04:44:30.512Z,18.50
2018-06-05T04:46:59.332Z,18.40
2018-06-05T04:49:29.040Z,18.40
2018-06-05T04:52:19.500Z,18.40
2018-06-05T04:54:51.361Z,18.50
2018-06-05T04:57:20.482Z,18.60
2018-06-05T04:59:51.627Z,18.60
2018-06-05T05:02:21.568Z,18.70
2018-06-05T05:04:49.640Z,18.70
2018-06-05T05:07:22.707Z,18.80
2018-06-05T05:09:52.718Z,18.80
2018-06-05T05:12:20.610Z,18.80
2018-06-05T05:14:48.372Z,18.90
2018-06-05T05:17:16.012Z,19.00
2018-06-05T05:19:47.600Z,18.90
2018-06-05T05:22:15.657Z,18.90
2018-06-05T05:24:43.422Z,19.00
2018-06-05T05:27:13.473Z,19.10
2018-06-05T05:32:27.500Z,19.20
2018-06-05T05:34:57.340Z,19.30
2018-06-05T05:37:25.781Z,19.30
2018-06-05T05:39:53.483Z,19.30
2018-06-05T05:42:21.625Z,19.30
2018-06-05T05:44:50.427Z,19.40
2018-06-05T05:47:18.275Z,19.20
2018-06-05T05:49:57.555Z,19.20
2018-06-05T05:52:29.138Z,19.10
2018-06-05T05:57:31.758Z,19.30
2018-06-05T05:59:59.781Z,19.40
2018-06-05T06:02:30.327Z,19.50
2018-06-05T06:05:01.217Z,19.50
2018-06-05T06:07:30.350Z,19.60
2018-06-05T06:10:08.580Z,19.70
2018-06-05T06:12:37.177Z,19.60
2018-06-05T06:15:05.106Z,19.50
2018-06-05T06:17:32.920Z,19.50
2018-06-05T06:20:13.358Z,19.50
2018-06-05T06:22:41.151Z,19.70
2018-06-05T06:25:08.789Z,19.80
2018-06-05T06:27:40.142Z,20.00
2018-06-05T06:32:39.210Z,20.20
2018-06-05T06:35:07.572Z,20.10
2018-06-05T06:37:35.192Z,20.20
2018-06-05T06:40:04.116Z,20.30
2018-06-05T06:45:25.963Z,20.40
2018-06-05T06:47:53.704Z,20.20
2018-06-05T06:50:21.370Z,20.40
2018-06-05T06:52:50.083Z,20.00
2018-06-05T06:55:25.289Z,20.00
2018-06-05T06:57:52.878Z,20.20
2018-06-05T07:00:22.768Z,19.90
2018-06-05T07:02:52.385Z,20.10
2018-06-05T07:05:24.161Z,20.20
2018-06-05T07:07:53.463Z,20.50
2018-06-05T07:10:22.045Z,20.50
2018-06-05T07:12:50.230Z,20.60
2018-06-05T07:15:18.278Z,20.50
2018-06-05T07:17:48.340Z,20.60
2018-06-05T07:20:16.224Z,20.70
2018-06-05T07:22:46.274Z,20.90
2018-06-05T07:25:14.211Z,20.80
2018-06-05T07:27:41.900Z,21.00
2018-06-05T07:30:17.092Z,20.90
2018-06-05T07:32:46.996Z,20.90
2018-06-05T07:35:14.981Z,21.00
2018-06-05T07:37:43.655Z,21.10
2018-06-05T07:40:15.621Z,21.30
2018-06-05T07:42:43.440Z,21.20
2018-06-05T07:45:13.081Z,21.30
2018-06-05T07:47:43.526Z,21.50
2018-06-05T07:50:11.255Z,21.60
2018-06-05T07:52:38.898Z,21.70
2018-06-05T07:55:06.929Z,21.70
2018-06-05T07:57:35.084Z,21.60
2018-06-05T08:00:03.918Z,21.80
2018-06-05T08:02:32.832Z,21.90
2018-06-05T08:05:00.396Z,21.90
2018-06-05T08:07:28.033Z,21.80
2018-06-05T08:09:55.669Z,21.90
2018-06-05T08:12:23.423Z,22.00
2018-06-05T08:15:04.705Z,22.00
2018-06-05T08:17:32.728Z,22.10
2018-06-05T08:20:00.448Z,22.30
2018-06-05T08:22:52.383Z,22.30
2018-06-05T08:25:20.434Z,22.30
2018-06-05T08:27:48.348Z,22.40
2018-06-05T08:30:19.215Z,22.10
2018-06-05T08:32:47.105Z,22.20
2018-06-05T08:35:15.221Z,22.30
2018-06-05T08:37:43.193Z,22.20
2018-06-05T08:40:12.862Z,22.10
2018-06-05T08:42:40.638Z,22.10
2018-06-05T08:45:11.759Z,22.20
2018-06-05T08:47:39.314Z,22.20
2018-06-05T08:53:00.377Z,22.50
2018-06-05T08:55:28.045Z,22.70
2018-06-05T08:57:55.830Z,22.60
2018-06-05T09:00:24.489Z,22.80
2018-06-05T09:02:52.325Z,22.80
2018-06-05T09:05:27.438Z,22.60
2018-06-05T09:07:55.191Z,22.60
2018-06-05T09:10:22.839Z,22.70
2018-06-05T09:12:51.039Z,22.70
2018-06-05T09:15:18.738Z,22.90
2018-06-05T09:17:46.439Z,23.10
2018-06-05T09:20:15.404Z,23.20
2018-06-05T09:22:44.923Z,23.30
2018-06-05T09:25:14.881Z,23.40
2018-06-05T09:27:49.645Z,23.50
2018-06-05T09:30:31.436Z,23.60
2018-06-05T09:33:13.281Z,23.60
2018-06-05T09:35:42.101Z,23.70
2018-06-05T09:40:43.884Z,23.40
2018-06-05T09:43:15.794Z,23.70
2018-06-05T09:45:43.654Z,23.90
2018-06-05T09:48:11.580Z,24.10
2018-06-05T09:50:45.030Z,24.10
2018-06-05T09:53:14.077Z,24.20
2018-06-05T09:55:44.750Z,24.20
2018-06-05T09:58:13.041Z,24.10
2018-06-05T10:00:46.780Z,24.10
2018-06-05T10:03:15.656Z,24.30
2018-06-05T10:05:44.599Z,24.60
2018-06-05T10:08:16.836Z,24.80
2018-06-05T10:10:45.500Z,24.90
2018-06-05T10:13:14.832Z,24.90
2018-06-05T10:18:31.571Z,24.80
2018-06-05T10:21:00.345Z,25.00
2018-06-05T10:23:28.006Z,25.30
2018-06-05T10:25:59.008Z,25.00
2018-06-05T10:28:27.698Z,25.30
2018-06-05T10:30:59.992Z,25.60
2018-06-05T10:35:55.533Z,25.70
2018-06-05T10:38:23.433Z,25.90
2018-06-05T10:40:52.737Z,26.00
2018-06-05T10:43:26.557Z,26.30
2018-06-05T10:45:55.731Z,26.30
2018-06-05T10:48:25.662Z,26.40
2018-06-05T10:50:54.579Z,26.50
2018-06-05T10:53:22.487Z,26.70
2018-06-05T10:55:50.151Z,26.70
2018-06-05T10:58:17.981Z,26.90
2018-06-05T11:00:47.903Z,26.90
2018-06-05T11:03:21.306Z,27.10
2018-06-05T11:05:49.533Z,27.20
2018-06-05T11:08:17.875Z,27.40
2018-06-05T11:10:51.071Z,27.20
2018-06-05T11:13:18.683Z,27.30
2018-06-05T11:15:47.236Z,27.10
2018-06-05T11:18:15.046Z,27.50
2018-06-05T11:20:42.831Z,27.80
2018-06-05T11:23:11.584Z,27.80
2018-06-05T11:25:39.297Z,28.10
2018-06-05T11:28:07.196Z,28.20
2018-06-05T11:30:35.984Z,28.30
2018-06-05T11:33:04.591Z,28.10
2018-06-05T11:35:32.784Z,28.30
2018-06-05T11:38:00.539Z,28.50
2018-06-05T11:40:31.591Z,28.70
2018-06-05T11:42:59.209Z,28.90
2018-06-05T11:45:26.926Z,28.90
2018-06-05T11:47:54.446Z,28.40
2018-06-05T11:50:22.011Z,28.00
2018-06-05T11:52:49.677Z,28.50
2018-06-05T11:55:19.416Z,29.10
2018-06-05T11:57:47.192Z,29.30
2018-06-05T12:00:15.359Z,28.50
2018-06-05T12:02:43.280Z,28.70
2018-06-05T12:05:11.200Z,29.10
2018-06-05T12:07:38.781Z,28.90
2018-06-05T12:10:06.470Z,28.90
2018-06-05T12:12:34.401Z,28.80
2018-06-05T12:15:02.492Z,29.90
2018-06-05T12:17:30.051Z,30.60
2018-06-05T12:19:57.710Z,31.10
2018-06-05T12:22:26.720Z,31.30
2018-06-05T12:24:54.338Z,30.30
2018-06-05T12:29:49.454Z,31.50
2018-06-05T12:32:17.276Z,31.90
2018-06-05T12:34:44.932Z,31.60
2018-06-05T12:37:12.686Z,31.80
2018-06-05T12:39:41.752Z,32.00
2018-06-05T12:42:09.342Z,32.10
2018-06-05T12:44:36.915Z,32.70
2018-06-05T12:47:04.588Z,32.70
2018-06-05T12:49:32.184Z,32.20
2018-06-05T12:52:00.862Z,31.40
2018-06-05T12:54:28.553Z,31.40
2018-06-05T12:56:56.231Z,31.90
2018-06-05T12:59:23.788Z,31.90
2018-06-05T13:01:54.367Z,32.20
2018-06-05T13:04:22.324Z,32.30
2018-06-05T13:06:49.879Z,32.00
2018-06-05T13:09:17.482Z,32.10
2018-06-05T13:11:46.342Z,33.00
2018-06-05T13:14:14.413Z,33.60
2018-06-05T13:16:42.039Z,32.70
2018-06-05T13:19:10.489Z,32.60
2018-06-05T13:21:40.762Z,32.20
2018-06-05T13:24:08.345Z,31.90
2018-06-05T13:26:35.987Z,31.70
2018-06-05T13:29:07.248Z,32.60
2018-06-05T13:31:36.582Z,31.50
2018-06-05T13:34:04.278Z,32.20
2018-06-05T13:36:31.869Z,32.30
2018-06-05T13:38:59.399Z,32.50
2018-06-05T13:41:29.020Z,32.40
2018-06-05T13:44:02.824Z,32.30
2018-06-05T13:46:30.607Z,31.30
2018-06-05T13:48:58.177Z,31.40
2018-06-05T13:51:30.158Z,31.30
2018-06-05T13:53:57.730Z,30.40
2018-06-05T13:56:25.855Z,29.90
2018-06-05T13:58:55.417Z,30.10
2018-06-05T14:01:23.046Z,30.10
2018-06-05T14:03:50.577Z,29.80
2018-06-05T14:06:18.205Z,29.60
2018-06-05T14:08:46.954Z,29.10
2018-06-05T14:11:15.002Z,28.50
2018-06-05T14:13:43.506Z,28.70
2018-06-05T14:16:17.900Z,28.30
2018-06-05T14:18:45.597Z,27.60
2018-06-05T14:21:13.246Z,27.80
2018-06-05T14:23:43.697Z,27.70
2018-06-05T14:26:11.280Z,27.70
2018-06-05T14:31:06.405Z,27.90
2018-06-05T14:33:33.987Z,27.60
2018-06-05T14:36:01.584Z,27.50
2018-06-05T14:38:29.231Z,27.20
2018-06-05T14:40:57.799Z,27.30
2018-06-05T14:43:25.439Z,27.30
2018-06-05T14:45:53.122Z,27.40
2018-06-05T14:48:20.715Z,27.10
2018-06-05T14:50:48.312Z,27.20
2018-06-05T14:53:16.131Z,27.10
2018-06-05T14:55:43.838Z,27.20
2018-06-05T14:58:11.438Z,26.90
2018-06-05T15:00:39.061Z,26.90
2018-06-05T15:03:07.219Z,26.80
2018-06-05T15:05:34.846Z,26.70
2018-06-05T15:08:06.250Z,26.80
2018-06-05T15:10:33.945Z,26.70
2018-06-05T15:13:01.624Z,26.70
2018-06-05T15:15:29.204Z,26.70
2018-06-05T15:17:57.879Z,26.60
2018-06-05T15:20:26.772Z,26.70
2018-06-05T15:22:54.362Z,26.70
2018-06-05T15:25:22.465Z,26.60
2018-06-05T15:27:50.218Z,26.70
2018-06-05T15:30:21.458Z,26.60
2018-06-05T15:32:49.077Z,26.60
2018-06-05T15:35:16.717Z,26.60
2018-06-05T15:37:45.016Z,26.60
2018-06-05T15:40:12.869Z,26.50
2018-06-05T15:42:40.459Z,26.50
2018-06-05T15:45:08.132Z,26.50
2018-06-05T15:47:36.464Z,26.50
2018-06-05T15:50:07.300Z,26.40
2018-06-05T15:52:36.611Z,26.30
2018-06-05T15:55:04.361Z,26.40
2018-06-05T15:57:33.545Z,26.40
2018-06-05T16:00:01.201Z,26.40
2018-06-05T16:02:32.286Z,26.40
2018-06-05T16:04:59.935Z,26.40
2018-06-05T16:07:27.526Z,26.40
2018-06-05T16:09:55.095Z,26.40
2018-06-05T16:12:22.787Z,26.30
2018-06-05T16:14:50.397Z,26.30
2018-06-05T16:17:18.111Z,26.40
2018-06-05T16:19:46.327Z,26.30
2018-06-05T16:22:14.620Z,26.30
2018-06-05T16:24:43.056Z,26.30
2018-06-05T16:27:10.642Z,26.30
2018-06-05T16:29:42.237Z,26.40
2018-06-05T16:32:09.880Z,26.30
2018-06-05T16:34:38.470Z,26.30
2018-06-05T16:37:06.355Z,26.30
2018-06-05T16:39:37.661Z,26.30
2018-06-05T16:42:05.330Z,26.40
2018-06-05T16:44:39.886Z,26.50
2018-06-05T16:47:07.551Z,26.50
2018-06-05T16:49:35.136Z,26.50
2018-06-05T16:52:02.764Z,26.40
2018-06-05T16:54:30.357Z,26.40
2018-06-05T16:56:57.986Z,26.50
2018-06-05T16:59:26.978Z,26.70
2018-06-05T17:01:54.547Z,26.60
2018-06-05T17:04:22.942Z,26.50
2018-06-05T17:06:58.006Z,26.50
2018-06-05T17:09:25.652Z,26.40
2018-06-05T17:11:53.214Z,26.30
2018-06-05T17:14:21.740Z,26.30
2018-06-05T17:16:49.292Z,26.20
2018-06-05T17:19:17.137Z,26.20
2018-06-05T17:21:45.052Z,26.10
2018-06-05T17:24:14.838Z,26.20
2018-06-05T17:26:42.737Z,26.20
2018-06-05T17:29:10.451Z,26.20
2018-06-05T17:31:38.323Z,26.20
2018-06-05T17:36:34.071Z,26.20
2018-06-05T17:39:04.631Z,26.00
2018-06-05T17:41:32.393Z,26.00
2018-06-05T17:43:59.981Z,25.90
2018-06-05T17:46:28.569Z,25.90
2018-06-05T17:48:56.226Z,25.90
2018-06-05T17:51:30.043Z,25.80
2018-06-05T17:53:57.707Z,25.60
2018-06-05T17:56:25.606Z,25.50
2018-06-05T17:58:53.350Z,25.50
2018-06-05T18:01:23.136Z,25.50
2018-06-05T18:03:50.836Z,25.40
2018-06-05T18:06:19.288Z,25.30
2018-06-05T18:08:47.125Z,25.30
2018-06-05T18:11:15.347Z,25.40
2018-06-05T18:13:43.035Z,25.50
2018-06-05T18:16:10.678Z,25.50
2018-06-05T18:18:38.878Z,25.30
2018-06-05T18:21:06.564Z,25.20
2018-06-05T18:23:34.134Z,25.20
2018-06-05T18:26:01.730Z,25.10
2018-06-05T18:28:29.471Z,25.00
2018-06-05T18:30:57.274Z,24.90
2018-06-05T18:35:54.908Z,24.70
2018-06-05T18:38:26.139Z,24.70
2018-06-05T18:40:53.782Z,24.70
2018-06-05T18:43:24.567Z,24.60
2018-06-05T18:45:52.310Z,24.50
2018-06-05T18:48:20.072Z,24.50
2018-06-05T18:50:48.659Z,24.40
2018-06-05T18:53:21.693Z,24.30
2018-06-05T18:55:49.403Z,24.20
2018-06-05T18:58:17.336Z,24.10
2018-06-05T19:00:47.066Z,24.10
2018-06-05T19:03:20.296Z,24.00
2018-06-05T19:05:52.050Z,23.90
2018-06-05T19:08:19.732Z,23.80
2018-06-05T19:10:49.087Z,23.80
2018-06-05T19:13:18.752Z,23.70
2018-06-05T19:15:46.665Z,23.70
2018-06-05T19:18:14.486Z,23.50
2018-06-05T19:20:46.060Z,23.50
2018-06-05T19:23:13.779Z,23.40
2018-06-05T19:25:41.410Z,23.40
2018-06-05T19:28:09.185Z,23.30
2018-06-05T19:30:39.427Z,23.20
2018-06-05T19:33:07.367Z,23.20
2018-06-05T19:38:02.753Z,23.10
2018-06-05T19:40:31.307Z,23.00
2018-06-05T19:45:28.545Z,23.00
2018-06-05T19:47:56.609Z,22.90
2018-06-05T19:50:25.653Z,22.90
2018-06-05T19:53:13.862Z,22.80
2018-06-05T19:55:41.865Z,22.70
2018-06-05T19:58:11.276Z,22.70
2018-06-05T20:00:43.636Z,22.60
2018-06-05T20:03:17.240Z,22.60
2018-06-05T20:05:45.532Z,22.50
2018-06-05T20:08:23.906Z,22.40
2018-06-05T20:10:53.958Z,22.30
2018-06-05T20:13:22.156Z,22.30
2018-06-05T20:15:50.438Z,22.30
2018-06-05T20:18:21.657Z,22.30
2018-06-05T20:20:53.643Z,22.10
2018-06-05T20:23:21.868Z,22.10
2018-06-05T20:25:50.256Z,22.10
2018-06-05T20:30:47.609Z,22.00
2018-06-05T20:33:15.370Z,22.00
2018-06-05T20:35:42.998Z,21.90
2018-06-05T20:38:18.829Z,21.80
2018-06-05T20:40:47.684Z,21.80
2018-06-05T20:43:15.836Z,21.80
2018-06-05T20:45:48.769Z,21.80
2018-06-05T20:48:18.544Z,21.60
2018-06-05T20:50:48.747Z,21.60
2018-06-05T20:58:15.683Z,21.40
2018-06-05T21:00:43.555Z,21.40
2018-06-05T21:03:11.182Z,21.30
2018-06-05T21:05:38.789Z,21.30
2018-06-05T21:08:06.416Z,21.20
2018-06-05T21:10:33.977Z,21.20
2018-06-05T21:13:01.526Z,21.10
2018-06-05T21:15:30.784Z,21.20
2018-06-05T21:17:58.532Z,21.20
2018-06-05T21:20:26.160Z,21.10
2018-06-05T21:22:53.923Z,21.00
2018-06-05T21:25:22.174Z,21.00
2018-06-05T21:27:51.263Z,21.00
2018-06-05T21:30:19.096Z,21.00
2018-06-05T21:32:47.087Z,20.80
2018-06-05T21:35:15.317Z,20.90
2018-06-05T21:37:42.986Z,20.80
2018-06-05T21:40:10.574Z,20.80
2018-06-05T21:42:38.159Z,20.70
2018-06-05T21:45:05.759Z,20.60
2018-06-05T21:47:33.996Z,20.60
2018-06-05T21:50:01.906Z,20.60
2018-06-05T21:52:31.515Z,20.60
2018-06-05T21:54:59.128Z,20.50
2018-06-05T21:57:26.989Z,20.50
2018-06-05T21:59:55.599Z,20.50
2018-06-05T22:02:23.647Z,20.50
2018-06-05T22:04:52.013Z,20.40
2018-06-05T22:07:22.843Z,20.40
2018-06-05T22:09:50.683Z,20.40
2018-06-05T22:12:20.623Z,20.30
2018-06-05T22:14:48.434Z,20.30
2018-06-05T22:17:17.566Z,20.30
2018-06-05T22:19:45.602Z,20.30
2018-06-05T22:22:13.535Z,20.30
2018-06-05T22:24:41.184Z,20.20
2018-06-05T22:27:08.781Z,20.20
2018-06-05T22:32:03.893Z,20.10
2018-06-05T22:34:31.495Z,20.10
2018-06-05T22:36:59.162Z,20.10
2018-06-05T22:39:26.860Z,20.10
2018-06-05T22:41:54.688Z,20.00
2018-06-05T22:44:22.502Z,20.00
2018-06-05T22:46:52.328Z,19.80
2018-06-05T22:49:21.164Z,19.90
2018-06-05T22:51:49.235Z,19.90
2018-06-05T22:54:17.511Z,19.80
2018-06-05T22:56:45.808Z,19.80
2018-06-05T22:59:13.712Z,19.80
2018-06-05T23:01:46.684Z,19.70
2018-06-05T23:04:14.943Z,19.70
2018-06-05T23:06:42.685Z,19.70
2018-06-05T23:09:10.244Z,19.60
2018-06-05T23:11:37.924Z,19.60
2018-06-05T23:14:05.553Z,19.60
2018-06-05T23:16:33.127Z,19.50
2018-06-05T23:19:00.784Z,19.50
2018-06-05T23:21:28.437Z,19.40
2018-06-05T23:23:56.218Z,19.40
2018-06-05T23:26:23.993Z,19.40
2018-06-05T23:28:52.135Z,19.40
2018-06-05T23:31:20.305Z,19.40
2018-06-05T23:33:49.291Z,19.30
2018-06-05T23:36:18.843Z,19.30
2018-06-05T23:38:49.624Z,19.30
2018-06-05T23:41:18.607Z,19.20
2018-06-05T23:43:47.243Z,19.20
2018-06-05T23:46:15.941Z,19.20
2018-06-05T23:48:44.365Z,19.20
2018-06-05T23:51:12.201Z,19.10
2018-06-05T23:53:40.196Z,19.10
2018-06-05T23:56:08.253Z,19.10
2018-06-05T23:58:37.342Z,19.10
